This is the latest recevied weather packets stored in our database for station/object WJ4C. If no packets are shown the sender has not sent any weather packets the latest 10 day(s).
| Time | Temp. | Humidity | Pressure | Rain* | Wind** | Luminosity | Snow |
|---|---|---|---|---|---|---|---|
| 1777349291 | 24.44° C | 78% | 1010.6 hPa | 0 mm | - | - | - |
| 1777348791 | 25° C | 77% | 1010.3 hPa | 0 mm | - | - | - |
| 1777348292 | 25° C | 77% | 1010.3 hPa | 0 mm | - | - | - |
| 1777347792 | 25° C | 77% | 1010.5 hPa | 0 mm | - | - | - |
| 1777347292 | 25° C | 77% | 1010.5 hPa | 0 mm | - | - | - |
| 1777346792 | 25° C | 77% | 1010.4 hPa | 0 mm | - | - | - |
| 1777346292 | 25° C | 77% | 1010.5 hPa | 0 mm | - | - | - |
| 1777345792 | 25° C | 77% | 1010.4 hPa | 0 mm | - | - | - |
| 1777345291 | 25° C | 77% | 1010.3 hPa | 0 mm | - | - | - |
| 1777344791 | 25° C | 76% | 1010.5 hPa | 0 mm | - | - | - |
| 1777344291 | 25° C | 77% | 1010.4 hPa | 0 mm | - | - | - |
| 1777343792 | 25° C | 77% | 1010.3 hPa | 0 mm | - | - | - |
| 1777343291 | 25° C | 77% | 1010.2 hPa | 0 mm | - | - | - |
| 1777342792 | 25° C | 77% | 1010.1 hPa | 0 mm | - | - | - |
| 1777342291 | 25° C | 77% | 1010 hPa | 0 mm | - | - | - |
| 1777341790 | 25° C | 78% | 1009.7 hPa | 0 mm | - | - | - |
| 1777341290 | 24.44° C | 78% | 1009.3 hPa | 0 mm | - | - | - |
| 1777340790 | 24.44° C | 79% | 1009.4 hPa | 0 mm | - | - | - |
| 1777340290 | 24.44° C | 80% | 1009.5 hPa | 0 mm | - | - | - |
| 1777339790 | 24.44° C | 81% | 1009.4 hPa | 0 mm | - | - | - |
| 1777339290 | 23.89° C | 81% | 1009.4 hPa | 0 mm | - | - | - |
| 1777338790 | 25° C | 79% | 1009.4 hPa | 0 mm | - | - | - |
| 1777338290 | 25.56° C | 75% | 1009.1 hPa | 0 mm | - | - | - |
| 1777337790 | 26.11° C | 72% | 1009.1 hPa | 0 mm | - | - | - |
| 1777337290 | 26.11° C | 72% | 1009.2 hPa | 0 mm | - | - | - |
* Rain latest hour (hover to see other rain measurements)
** Current wind speed in m/s (hover to see current wind gust speed)